Αρχική σελίδα
METAR-TAF:

METAR-TAF

Αεροδρόμια :

Διεθνές Αεροδρόμιο Εσένμπογκα

Άγκυρα Εσένμπογκα, Τουρκία

γεωγραφικό πλάτος: 40-07N, γεωγραφικό μήκος: 032-59E, υψόμετρο: 953 μ

Παρών καιρός

Η αναφορά έγινε 35 λεπτά πριν, στις 10:50 UTC
Άνεμος 9 kt από Δ/ΝΔ, μεταβλητός μεταξύ Ν/ΝΔ και Δ
Θερμοκρασία 7°C
Υγρασία 53%
Πίεση 1018 hPa
Ορατότητα 10 χλμ και άνω
Διάσπαρτα νέφη σε ύψος 3300 πόδια
Αρκετά νέφη σε ύψος 8000 πόδια

METAR: LTAC 161050Z 24009KT 210V270 9999 SCT033 BKN080 07/M02 Q1018 NOSIG

Χρόνος: 14:25 (11:25 UTC)

Πρόγνωση Καιρού

Η αναφορά έγινε 6 ώρες και 45 λεπτά πριν, στις 04:40 UTC
Η πρόγνωση ισχύει από τις 16 στις 06 UTC έως τις 17 στις 06 UTC
Άνεμος 2 kt από μεταβλητές κατευθύνσεις
Ορατότητα 10 χλμ και άνω
Διάσπαρτα νέφη σε ύψος 4000 πόδια
Αρκετά νέφη σε ύψος 10000 πόδια

TAF: LTAC 160440Z 1606/1706 VRB02KT 9999 SCT040 BKN100

Μετεωρολογικές αναφορές και προγνώσεις για περισσότερα από 4000 αεροδρόμια (δελτία METAR και TAF).

Οι διαθέσιμοι σταθμοί απεικονίζονται στο χάρτη με κίτρινες και κόκκινες κουκκίδες.

Μετακινήστε το ποντίκι πάνω από τις κουκκίδες για να δείτε το όνομα του σταθμού.

Στη συνέχεια, κάντε κλικ για να δείτε τις μετεωρολογικές αναφορές και τις προγνώσεις καιρού.

Για να αλλάξετε το χάρτη: κάντε κλικ στα πράσινα κουμπιά με τον μαύρο σταυρό για να ζουμάρετε, στο πράσινο κουμπί με την παύλα για να αφαιρέσετε το ζουμ ή στα πράσινα βέλη για να αντιπαραβάλλετε χάρτες.


METAR-TAF: